Date,TemperatureHighF,TemperatureAvgF,TemperatureLowF,DewpointHighF,DewpointAvgF,DewpointLowF,HumidityHigh,HumidityAvg,HumidityLow,PressureMaxIn,PressureMinIn,WindSpeedMaxMPH,WindSpeedAvgMPH,GustSpeedMaxMPH,PrecipitationSumIn
2013-2-1,21.7,15.1,9.7,9.2,3.5,-4.8,80,61,43,30.27,29.91,20,7,21,0.00
2013-2-2,26.6,14.5,-0.2,13.9,2.8,-11.8,79,60,51,30.24,30.00,17,6,18,0.00
2013-2-3,25.0,12.0,-1.1,9.9,-0.4,-12.3,65,57,45,30.12,29.85,14,3,14,0.00
2013-2-4,32.9,18.6,9.9,15.4,7.9,-0.2,79,64,43,30.09,29.88,7,3,8,0.00
2013-2-5,28.2,22.0,1.9,25.4,13.5,-3.1,91,71,46,30.03,29.76,18,7,18,0.00
2013-2-6,47.5,26.0,9.1,17.9,10.6,2.1,79,54,29,30.30,30.03,12,3,13,0.00
2013-2-7,38.1,30.9,25.3,27.4,18.1,11.0,98,59,45,30.33,29.94,16,7,16,0.00
2013-2-8,33.8,27.5,23.9,28.1,20.2,9.3,98,77,43,30.27,29.88,25,11,26,0.00
2013-2-9,54.1,28.7,-2.2,22.0,10.2,-6.6,81,49,27,30.53,30.30,12,4,13,0.00
2013-2-10,42.3,31.1,16.7,35.5,20.2,11.9,88,66,39,30.33,29.68,28,10,28,0.21
2013-2-11,43.9,37.3,32.2,42.4,28.1,19.7,98,70,50,29.88,29.53,33,13,33,0.09
2013-2-12,32.2,29.8,27.1,22.8,19.0,16.2,70,64,55,30.03,29.88,15,5,18,0.00
2013-2-13,41.7,30.8,26.6,25.7,20.2,17.0,83,65,45,30.00,29.71,11,4,12,0.00
2013-2-14,42.8,34.5,29.8,31.6,27.7,19.6,87,76,58,29.88,29.65,23,9,26,0.00
2013-2-15,31.8,26.2,19.0,21.1,11.7,6.6,70,54,40,30.18,29.88,13,5,16,0.00
2013-2-16,32.5,21.2,15.3,16.1,9.3,1.1,79,61,39,30.15,30.03,14,4,14,0.00
2013-2-17,27.7,17.0,8.4,5.8,0.9,-2.2,66,50,33,30.27,30.15,16,4,16,0.00
2013-2-18,45.7,31.6,16.5,31.0,14.0,1.0,62,48,38,30.27,29.56,29,13,29,0.00
2013-2-19,45.5,29.2,18.1,38.8,19.7,5.8,88,68,52,29.97,29.38,29,12,404,0.12
2013-2-20,23.7,19.8,14.9,11.6,5.9,2.7,66,55,43,30.36,29.94,18,7,404,0.00
2013-2-21,29.5,21.3,18.1,10.8,7.5,4.2,68,55,41,30.50,30.33,18,7,20,0.00
2013-2-23,27.1,25.7,23.9,18.8,17.0,15.9,73,69,64,30.00,29.91,12,6,13,0.00
2013-2-24,46.9,29.3,17.8,23.5,19.3,10.6,96,69,36,30.21,29.94,9,4,10,0.04
2013-2-25,58.6,34.2,23.2,28.5,20.0,14.8,81,59,28,30.30,30.15,8,2,8,0.00
2013-2-26,36.0,30.8,23.7,32.8,23.7,16.6,98,76,53,30.21,29.59,25,10,25,0.12
2013-2-27,46.0,35.9,33.1,39.6,33.5,30.8,98,92,69,29.62,29.53,8,5,9,0.26
2013-2-28,37.2,32.6,28.4,32.3,24.3,19.4,97,71,61,30.03,29.62,20,10,23,0.34